Terminal Aerodrome Forecast
Issued by NWS Tampa Bay Area, FL

Home | Current Version | Previous Version | Text Only | Print | Product List | Glossary On
Versions: 1 2 3 4 5 6 7 8 9 10 11 12 13 14 15
000
FTUS42 KTBW 051128
TAFFMY
TAF
KFMY 051128Z 0512/0612 VRB03KT P6SM SKC
     FM051700 24006KT P6SM VCTS SCT045CB BKN250
     FM060100 VRB03KT P6SM SCT050 BKN250=

USA.gov is the U.S. government's official web portal to all federal, state and local government web resources and services.